Portada
METAR-TAF:

METAR-TAF

Aeroports :

Shijiazhuang, Xina

latitud: 38-16-51N, longitud: 114-41-48E, altitud: 233 m

Observació

L'informe es va fer fa 28 minuts, a les 10:00 UTC
Vent 2 kt del Est/Sud-Est
Temperatura 0°C
Humitat 64%
Pressió 1032 hPa
Visibilitat: 4000 m
calitja

METAR: ZBSJ 251000Z 12001MPS 4000 HZ NSC 00/M06 Q1032 NOSIG

Hora: 18:28 (10:28 UTC)

Pronòstic

L'informe es va fer fa 9 hores i 24 minuts, a les 01:04 UTC
Pronòstic vàlid del 25 a les 06 UTC al 26 a les 06 UTC
Vent 6 kt del Sud
Visibilitat: 3000 m
boirina

TAF: ZBSJ 250104Z 2506/2606 18003MPS 3000 BR NSC TX03/2507Z TNM07/2521Z

Observacions i pronòstics meteorològics de més de 4000 aeroports (METAR i TAF).

Les estacions disponibles són els punts grocs i vermells al mapa.

Posi el ratolí al punt desitjat per veure el nom de l'estació.

Feu clic per veure les observacions i els pronòstics meteorològics.

Per canviar el mapa: feu clic els botons verds amb una creu de color negre per apropar; al botó verd amb un guió per allunyar la imatge; o en les fletxes verdes per a mapes adjacents.


METAR-TAF: